Main page
METAR-TAF:

METAR-TAF

Airports :

Malmstrom Air Force Base

Great Falls, Montana, United States

latitude: 47-30N, longitude: 111-11W, elevation: 3526 ft

Current weather observation

The report was made 1 hour and 5 minutes ago, at 05:58 UTC
Wind 10 mph from the South/Southwest
Temperature 73°F
Humidity 44%
Pressure 30.11 in. Hg
Visibility: 10 miles
Clear sky

METAR: KGFA 300558Z AUTO 21009KT 10SM CLR 23/10 A3011 RMK AO2 SLP169 T02280098 10319 20220 51011 $

Time: 01:03 (07:03 UTC)

Forecast

The report was made 4 hours and 3 minutes ago, at 03:00 UTC
Forecast valid from 30 at 03 UTC to 31 at 09 UTC
Wind 7 mph from variable directions
Visibility: 29527 ft
Scattered clouds at a height of 9000 ft
Broken clouds at a height of 15000 ft
smoke
Becoming
from 30 at 05 UTC to 30 at 06 UTC
Wind 7 mph from variable directions
Visibility: 29527 ft
Few clouds at a height of 12000 ft
smoke

TAF: KGFA 300300Z 3003/3109 VRB06KT 9000 FU SCT090 BKN150 QNH3003INS BECMG 3005/3006 VRB06KT 9000 FU FEW120 QNH3011INS TX34/3022Z TN17/3012Z

Weather observations and forecasts of more than 4000 airports (METAR and TAF reports).

The available stations are represented by yellow and red dots on the map.

Hover mouse over dot to see the name of the station.

Then click to see weather observations and forecasts.

To change the map : click on the green buttons with a black cross to zoom in, on the green button with a dash to zoom out, or on the green arrows for adjacent maps.


METAR-TAF: